Terminal Aerodrome Forecast
Issued by NWS North Platte, NE

Home | Current Version | Previous Version | Text Only | Print | Product List | Glossary Off
Versions: 1 2 3 4 5 6 7 8 9 10 11 12 13 14

083
FTUS43 KLBF 281120
TAFVTN
TAF
KVTN 281120Z 2812/2912 VRB03KT P6SM BKN120
     FM281500 31006KT P6SM SCT120
     FM282100 33009KT P6SM BKN100
     FM290100 03006KT P6SM SCT100 BKN250
     FM290600 VRB06KT P6SM SCT250=

USA.gov is the U.S. government's official web portal to all federal, state and local government web resources and services.